sensor_id;sensor_type;location;lat;lon;timestamp;P1;durP1;ratioP1;P2;durP2;ratioP2
33270;SDS011;53180;51.344;6.152;2023-02-28T00:01:48;6.18;;;5.78;;
33270;SDS011;53180;51.344;6.152;2023-02-28T00:04:17;6.65;;;6.25;;
33270;SDS011;53180;51.344;6.152;2023-02-28T00:06:46;6.35;;;5.85;;
33270;SDS011;53180;51.344;6.152;2023-02-28T00:09:14;6.65;;;6.18;;
33270;SDS011;53180;51.344;6.152;2023-02-28T00:11:42;6.93;;;6.15;;
33270;SDS011;53180;51.344;6.152;2023-02-28T00:14:11;6.20;;;5.70;;
33270;SDS011;53180;51.344;6.152;2023-02-28T00:16:39;7.15;;;6.65;;
33270;SDS011;53180;51.344;6.152;2023-02-28T00:19:07;6.60;;;6.20;;
33270;SDS011;53180;51.344;6.152;2023-02-28T00:21:37;6.47;;;5.97;;
33270;SDS011;53180;51.344;6.152;2023-02-28T00:26:35;6.30;;;5.90;;
33270;SDS011;53180;51.344;6.152;2023-02-28T00:29:03;6.75;;;6.35;;
33270;SDS011;53180;51.344;6.152;2023-02-28T00:31:31;6.45;;;5.95;;
33270;SDS011;53180;51.344;6.152;2023-02-28T00:34:00;6.97;;;6.47;;
33270;SDS011;53180;51.344;6.152;2023-02-28T00:36:28;6.50;;;6.10;;
33270;SDS011;53180;51.344;6.152;2023-02-28T00:38:58;6.18;;;5.75;;
33270;SDS011;53180;51.344;6.152;2023-02-28T00:41:26;6.30;;;5.90;;
33270;SDS011;53180;51.344;6.152;2023-02-28T00:43:55;7.90;;;6.00;;
33270;SDS011;53180;51.344;6.152;2023-02-28T00:46:23;6.60;;;6.13;;
33270;SDS011;53180;51.344;6.152;2023-02-28T00:48:52;6.25;;;5.85;;
33270;SDS011;53180;51.344;6.152;2023-02-28T00:51:23;7.18;;;6.57;;
33270;SDS011;53180;51.344;6.152;2023-02-28T00:53:51;7.22;;;6.72;;
33270;SDS011;53180;51.344;6.152;2023-02-28T00:56:21;6.32;;;5.82;;
33270;SDS011;53180;51.344;6.152;2023-02-28T00:58:49;6.70;;;6.30;;
33270;SDS011;53180;51.344;6.152;2023-02-28T01:01:18;6.43;;;6.03;;
33270;SDS011;53180;51.344;6.152;2023-02-28T01:03:46;6.60;;;6.10;;
33270;SDS011;53180;51.344;6.152;2023-02-28T01:06:14;6.57;;;6.18;;
33270;SDS011;53180;51.344;6.152;2023-02-28T01:08:43;6.85;;;6.35;;
33270;SDS011;53180;51.344;6.152;2023-02-28T01:11:11;7.35;;;6.65;;
33270;SDS011;53180;51.344;6.152;2023-02-28T01:13:44;7.20;;;6.72;;
33270;SDS011;53180;51.344;6.152;2023-02-28T01:16:13;6.65;;;6.15;;
33270;SDS011;53180;51.344;6.152;2023-02-28T01:18:42;6.70;;;6.30;;
33270;SDS011;53180;51.344;6.152;2023-02-28T01:21:11;7.13;;;6.60;;
33270;SDS011;53180;51.344;6.152;2023-02-28T01:23:41;7.10;;;6.55;;
33270;SDS011;53180;51.344;6.152;2023-02-28T01:26:10;7.30;;;6.60;;
33270;SDS011;53180;51.344;6.152;2023-02-28T01:28:43;7.38;;;6.70;;
33270;SDS011;53180;51.344;6.152;2023-02-28T01:31:12;7.03;;;6.53;;
33270;SDS011;53180;51.344;6.152;2023-02-28T01:33:40;6.90;;;6.40;;
33270;SDS011;53180;51.344;6.152;2023-02-28T01:36:09;6.70;;;6.20;;
33270;SDS011;53180;51.344;6.152;2023-02-28T01:38:41;7.30;;;6.70;;
33270;SDS011;53180;51.344;6.152;2023-02-28T01:41:11;6.70;;;6.20;;
33270;SDS011;53180;51.344;6.152;2023-02-28T01:43:57;7.28;;;6.68;;
33270;SDS011;53180;51.344;6.152;2023-02-28T01:46:31;6.75;;;6.35;;
33270;SDS011;53180;51.344;6.152;2023-02-28T01:49:02;6.82;;;6.40;;
33270;SDS011;53180;51.344;6.152;2023-02-28T01:51:37;6.97;;;6.47;;
33270;SDS011;53180;51.344;6.152;2023-02-28T01:54:13;7.38;;;6.78;;
33270;SDS011;53180;51.344;6.152;2023-02-28T01:56:46;6.93;;;6.53;;
33270;SDS011;53180;51.344;6.152;2023-02-28T01:59:23;6.53;;;6.13;;
33270;SDS011;53180;51.344;6.152;2023-02-28T02:01:56;7.47;;;6.93;;
33270;SDS011;53180;51.344;6.152;2023-02-28T02:04:25;6.97;;;6.47;;
33270;SDS011;53180;51.344;6.152;2023-02-28T02:07:01;6.68;;;6.28;;
33270;SDS011;53180;51.344;6.152;2023-02-28T02:09:30;6.90;;;6.20;;
33270;SDS011;53180;51.344;6.152;2023-02-28T02:11:59;6.47;;;6.07;;
33270;SDS011;53180;51.344;6.152;2023-02-28T02:14:47;7.25;;;6.85;;
33270;SDS011;53180;51.344;6.152;2023-02-28T02:17:30;7.95;;;7.25;;
33270;SDS011;53180;51.344;6.152;2023-02-28T02:20:08;6.88;;;6.38;;
33270;SDS011;53180;51.344;6.152;2023-02-28T02:23:12;7.07;;;6.53;;
33270;SDS011;53180;51.344;6.152;2023-02-28T02:26:03;7.18;;;6.68;;
33270;SDS011;53180;51.344;6.152;2023-02-28T02:29:06;6.60;;;6.10;;
33270;SDS011;53180;51.344;6.152;2023-02-28T02:35:33;6.88;;;6.40;;
33270;SDS011;53180;51.344;6.152;2023-02-28T02:38:08;8.02;;;7.43;;
33270;SDS011;53180;51.344;6.152;2023-02-28T02:40:48;6.88;;;6.47;;
33270;SDS011;53180;51.344;6.152;2023-02-28T02:43:25;6.70;;;6.30;;
33270;SDS011;53180;51.344;6.152;2023-02-28T02:46:02;7.50;;;6.82;;
33270;SDS011;53180;51.344;6.152;2023-02-28T02:48:37;7.03;;;6.53;;
33270;SDS011;53180;51.344;6.152;2023-02-28T02:51:11;7.03;;;6.57;;
33270;SDS011;53180;51.344;6.152;2023-02-28T02:53:43;7.43;;;6.80;;
33270;SDS011;53180;51.344;6.152;2023-02-28T02:56:17;6.50;;;6.10;;
33270;SDS011;53180;51.344;6.152;2023-02-28T02:58:48;7.00;;;6.50;;
33270;SDS011;53180;51.344;6.152;2023-02-28T03:01:20;6.90;;;6.50;;
33270;SDS011;53180;51.344;6.152;2023-02-28T03:03:56;6.78;;;6.30;;
33270;SDS011;53180;51.344;6.152;2023-02-28T03:06:28;6.88;;;6.47;;
33270;SDS011;53180;51.344;6.152;2023-02-28T03:08:57;6.50;;;6.10;;
33270;SDS011;53180;51.344;6.152;2023-02-28T03:11:25;7.15;;;6.65;;
33270;SDS011;53180;51.344;6.152;2023-02-28T03:13:59;6.65;;;6.25;;
33270;SDS011;53180;51.344;6.152;2023-02-28T03:16:50;6.72;;;6.32;;
33270;SDS011;53180;51.344;6.152;2023-02-28T03:19:54;6.95;;;6.43;;
33270;SDS011;53180;51.344;6.152;2023-02-28T03:22:40;7.35;;;6.85;;
33270;SDS011;53180;51.344;6.152;2023-02-28T03:25:27;6.57;;;6.18;;
33270;SDS011;53180;51.344;6.152;2023-02-28T03:28:03;6.85;;;6.43;;
33270;SDS011;53180;51.344;6.152;2023-02-28T03:30:40;6.95;;;6.45;;
33270;SDS011;53180;51.344;6.152;2023-02-28T03:33:15;6.43;;;6.03;;
33270;SDS011;53180;51.344;6.152;2023-02-28T03:35:50;7.15;;;6.65;;
33270;SDS011;53180;51.344;6.152;2023-02-28T03:38:24;6.50;;;6.10;;
33270;SDS011;53180;51.344;6.152;2023-02-28T03:41:00;6.72;;;6.25;;
33270;SDS011;53180;51.344;6.152;2023-02-28T03:43:34;6.65;;;6.25;;
33270;SDS011;53180;51.344;6.152;2023-02-28T03:46:07;7.00;;;6.50;;
33270;SDS011;53180;51.344;6.152;2023-02-28T03:48:40;6.70;;;6.18;;
33270;SDS011;53180;51.344;6.152;2023-02-28T03:51:15;7.03;;;6.53;;
33270;SDS011;53180;51.344;6.152;2023-02-28T03:53:50;7.10;;;6.68;;
33270;SDS011;53180;51.344;6.152;2023-02-28T03:56:23;7.30;;;6.80;;
33270;SDS011;53180;51.344;6.152;2023-02-28T03:58:58;7.15;;;6.65;;
33270;SDS011;53180;51.344;6.152;2023-02-28T04:01:32;7.38;;;6.78;;
33270;SDS011;53180;51.344;6.152;2023-02-28T04:04:03;6.68;;;6.28;;
33270;SDS011;53180;51.344;6.152;2023-02-28T04:06:33;7.13;;;6.55;;
33270;SDS011;53180;51.344;6.152;2023-02-28T04:09:04;6.30;;;5.90;;
33270;SDS011;53180;51.344;6.152;2023-02-28T04:11:35;9.43;;;6.57;;
33270;SDS011;53180;51.344;6.152;2023-02-28T04:14:05;6.85;;;6.45;;
33270;SDS011;53180;51.344;6.152;2023-02-28T04:16:36;7.53;;;6.93;;
33270;SDS011;53180;51.344;6.152;2023-02-28T04:19:07;7.32;;;6.82;;
33270;SDS011;53180;51.344;6.152;2023-02-28T04:21:37;11.75;;;6.60;;
33270;SDS011;53180;51.344;6.152;2023-02-28T04:24:09;6.80;;;6.30;;
33270;SDS011;53180;51.344;6.152;2023-02-28T04:26:41;6.65;;;6.25;;
33270;SDS011;53180;51.344;6.152;2023-02-28T04:29:12;7.00;;;6.60;;
33270;SDS011;53180;51.344;6.152;2023-02-28T04:31:44;7.00;;;6.60;;
33270;SDS011;53180;51.344;6.152;2023-02-28T04:34:13;7.05;;;6.57;;
33270;SDS011;53180;51.344;6.152;2023-02-28T04:36:41;6.72;;;6.32;;
33270;SDS011;53180;51.344;6.152;2023-02-28T04:39:13;7.40;;;6.93;;
33270;SDS011;53180;51.344;6.152;2023-02-28T04:41:42;7.53;;;6.97;;
33270;SDS011;53180;51.344;6.152;2023-02-28T04:44:10;7.00;;;6.57;;
33270;SDS011;53180;51.344;6.152;2023-02-28T04:46:38;6.80;;;6.40;;
33270;SDS011;53180;51.344;6.152;2023-02-28T04:49:07;7.88;;;7.25;;
33270;SDS011;53180;51.344;6.152;2023-02-28T04:51:37;7.32;;;6.70;;
33270;SDS011;53180;51.344;6.152;2023-02-28T04:54:05;7.30;;;6.80;;
33270;SDS011;53180;51.344;6.152;2023-02-28T04:56:35;7.25;;;6.75;;
33270;SDS011;53180;51.344;6.152;2023-02-28T04:59:04;7.07;;;6.68;;
33270;SDS011;53180;51.344;6.152;2023-02-28T05:01:32;6.85;;;6.45;;
33270;SDS011;53180;51.344;6.152;2023-02-28T05:04:03;14.40;;;13.40;;
33270;SDS011;53180;51.344;6.152;2023-02-28T05:06:32;7.10;;;6.70;;
33270;SDS011;53180;51.344;6.152;2023-02-28T05:09:01;6.88;;;6.47;;
33270;SDS011;53180;51.344;6.152;2023-02-28T05:11:31;9.40;;;7.50;;
33270;SDS011;53180;51.344;6.152;2023-02-28T05:14:03;7.30;;;6.80;;
33270;SDS011;53180;51.344;6.152;2023-02-28T05:16:33;6.82;;;6.43;;
33270;SDS011;53180;51.344;6.152;2023-02-28T05:19:01;6.65;;;6.25;;
33270;SDS011;53180;51.344;6.152;2023-02-28T05:21:30;7.22;;;6.72;;
33270;SDS011;53180;51.344;6.152;2023-02-28T05:24:01;6.70;;;6.30;;
33270;SDS011;53180;51.344;6.152;2023-02-28T05:26:34;17.98;;;13.40;;
33270;SDS011;53180;51.344;6.152;2023-02-28T05:29:05;10.15;;;9.15;;
33270;SDS011;53180;51.344;6.152;2023-02-28T05:31:33;8.43;;;7.43;;
33270;SDS011;53180;51.344;6.152;2023-02-28T05:34:02;7.93;;;7.25;;
33270;SDS011;53180;51.344;6.152;2023-02-28T05:36:31;7.32;;;6.82;;
33270;SDS011;53180;51.344;6.152;2023-02-28T05:39:00;6.82;;;6.32;;
33270;SDS011;53180;51.344;6.152;2023-02-28T05:41:29;6.80;;;6.40;;
33270;SDS011;53180;51.344;6.152;2023-02-28T05:43:58;7.32;;;6.82;;
33270;SDS011;53180;51.344;6.152;2023-02-28T05:46:28;7.38;;;6.78;;
33270;SDS011;53180;51.344;6.152;2023-02-28T05:48:56;7.47;;;6.97;;
33270;SDS011;53180;51.344;6.152;2023-02-28T05:51:26;7.18;;;6.70;;
33270;SDS011;53180;51.344;6.152;2023-02-28T05:53:58;6.90;;;6.30;;
33270;SDS011;53180;51.344;6.152;2023-02-28T05:56:27;6.60;;;6.20;;
33270;SDS011;53180;51.344;6.152;2023-02-28T05:58:56;7.30;;;6.80;;
33270;SDS011;53180;51.344;6.152;2023-02-28T06:01:30;7.43;;;6.93;;
33270;SDS011;53180;51.344;6.152;2023-02-28T06:04:02;6.90;;;6.50;;
33270;SDS011;53180;51.344;6.152;2023-02-28T06:06:31;7.60;;;7.13;;
33270;SDS011;53180;51.344;6.152;2023-02-28T06:09:02;7.18;;;6.68;;
33270;SDS011;53180;51.344;6.152;2023-02-28T06:11:31;7.40;;;6.90;;
33270;SDS011;53180;51.344;6.152;2023-02-28T06:14:00;7.07;;;6.57;;
33270;SDS011;53180;51.344;6.152;2023-02-28T06:16:32;6.85;;;6.45;;
33270;SDS011;53180;51.344;6.152;2023-02-28T06:19:02;7.10;;;6.60;;
33270;SDS011;53180;51.344;6.152;2023-02-28T06:21:31;6.95;;;6.55;;
33270;SDS011;53180;51.344;6.152;2023-02-28T06:23:59;6.95;;;6.55;;
33270;SDS011;53180;51.344;6.152;2023-02-28T06:26:28;7.03;;;6.63;;
33270;SDS011;53180;51.344;6.152;2023-02-28T06:28:57;7.45;;;6.95;;
33270;SDS011;53180;51.344;6.152;2023-02-28T06:31:27;6.90;;;6.40;;
33270;SDS011;53180;51.344;6.152;2023-02-28T06:33:57;7.13;;;6.63;;
33270;SDS011;53180;51.344;6.152;2023-02-28T06:36:25;7.47;;;6.95;;
33270;SDS011;53180;51.344;6.152;2023-02-28T06:38:54;7.75;;;7.25;;
33270;SDS011;53180;51.344;6.152;2023-02-28T06:41:23;7.57;;;7.07;;
33270;SDS011;53180;51.344;6.152;2023-02-28T06:43:54;9.00;;;7.07;;
33270;SDS011;53180;51.344;6.152;2023-02-28T06:46:23;7.97;;;7.32;;
33270;SDS011;53180;51.344;6.152;2023-02-28T06:48:51;7.75;;;7.00;;
33270;SDS011;53180;51.344;6.152;2023-02-28T06:51:21;7.65;;;7.15;;
33270;SDS011;53180;51.344;6.152;2023-02-28T06:53:50;7.40;;;6.90;;
33270;SDS011;53180;51.344;6.152;2023-02-28T06:56:19;7.10;;;6.60;;
33270;SDS011;53180;51.344;6.152;2023-02-28T06:58:48;7.55;;;6.95;;
33270;SDS011;53180;51.344;6.152;2023-02-28T07:01:19;7.68;;;7.18;;
33270;SDS011;53180;51.344;6.152;2023-02-28T07:03:49;7.03;;;6.53;;
33270;SDS011;53180;51.344;6.152;2023-02-28T07:06:18;7.32;;;6.72;;
33270;SDS011;53180;51.344;6.152;2023-02-28T07:08:50;6.65;;;6.25;;
33270;SDS011;53180;51.344;6.152;2023-02-28T07:11:19;6.88;;;6.47;;
33270;SDS011;53180;51.344;6.152;2023-02-28T07:13:51;7.10;;;6.60;;
33270;SDS011;53180;51.344;6.152;2023-02-28T07:16:20;6.78;;;6.32;;
33270;SDS011;53180;51.344;6.152;2023-02-28T07:18:51;6.82;;;6.32;;
33270;SDS011;53180;51.344;6.152;2023-02-28T07:21:21;6.97;;;6.47;;
33270;SDS011;53180;51.344;6.152;2023-02-28T07:23:50;6.97;;;6.47;;
33270;SDS011;53180;51.344;6.152;2023-02-28T07:26:19;6.63;;;6.22;;
33270;SDS011;53180;51.344;6.152;2023-02-28T07:28:48;6.40;;;6.00;;
33270;SDS011;53180;51.344;6.152;2023-02-28T07:31:16;6.28;;;5.88;;
33270;SDS011;53180;51.344;6.152;2023-02-28T07:33:45;6.75;;;6.35;;
33270;SDS011;53180;51.344;6.152;2023-02-28T07:36:14;6.43;;;6.03;;
33270;SDS011;53180;51.344;6.152;2023-02-28T07:38:47;6.65;;;6.15;;
33270;SDS011;53180;51.344;6.152;2023-02-28T07:43:46;6.35;;;5.95;;
33270;SDS011;53180;51.344;6.152;2023-02-28T07:46:15;6.20;;;5.80;;
33270;SDS011;53180;51.344;6.152;2023-02-28T07:48:46;6.25;;;5.85;;
33270;SDS011;53180;51.344;6.152;2023-02-28T07:51:14;20.00;;;5.65;;
33270;SDS011;53180;51.344;6.152;2023-02-28T07:53:43;6.32;;;5.82;;
33270;SDS011;53180;51.344;6.152;2023-02-28T07:56:12;6.30;;;5.80;;
33270;SDS011;53180;51.344;6.152;2023-02-28T07:58:41;5.82;;;5.45;;
33270;SDS011;53180;51.344;6.152;2023-02-28T08:01:09;6.05;;;5.65;;
33270;SDS011;53180;51.344;6.152;2023-02-28T08:03:39;5.80;;;5.40;;
33270;SDS011;53180;51.344;6.152;2023-02-28T08:06:08;5.57;;;5.18;;
33270;SDS011;53180;51.344;6.152;2023-02-28T08:08:44;5.50;;;5.20;;
33270;SDS011;53180;51.344;6.152;2023-02-28T08:11:14;5.30;;;4.90;;
33270;SDS011;53180;51.344;6.152;2023-02-28T08:16:13;5.05;;;4.75;;
33270;SDS011;53180;51.344;6.152;2023-02-28T08:18:47;5.78;;;5.38;;
33270;SDS011;53180;51.344;6.152;2023-02-28T08:21:17;4.80;;;4.50;;
33270;SDS011;53180;51.344;6.152;2023-02-28T08:23:47;4.75;;;4.45;;
33270;SDS011;53180;51.344;6.152;2023-02-28T08:26:18;4.60;;;4.30;;
33270;SDS011;53180;51.344;6.152;2023-02-28T08:31:16;5.00;;;4.60;;
33270;SDS011;53180;51.344;6.152;2023-02-28T08:33:45;4.80;;;4.50;;
33270;SDS011;53180;51.344;6.152;2023-02-28T08:36:14;4.32;;;4.03;;
33270;SDS011;53180;51.344;6.152;2023-02-28T08:38:43;4.43;;;4.13;;
33270;SDS011;53180;51.344;6.152;2023-02-28T08:41:12;4.35;;;4.05;;
33270;SDS011;53180;51.344;6.152;2023-02-28T08:43:42;4.03;;;3.78;;
33270;SDS011;53180;51.344;6.152;2023-02-28T08:46:11;4.13;;;3.80;;
33270;SDS011;53180;51.344;6.152;2023-02-28T08:48:40;3.97;;;3.67;;
33270;SDS011;53180;51.344;6.152;2023-02-28T08:51:10;4.45;;;4.15;;
33270;SDS011;53180;51.344;6.152;2023-02-28T08:53:42;4.13;;;3.83;;
33270;SDS011;53180;51.344;6.152;2023-02-28T08:56:11;4.18;;;3.88;;
33270;SDS011;53180;51.344;6.152;2023-02-28T08:58:43;4.38;;;4.07;;
33270;SDS011;53180;51.344;6.152;2023-02-28T09:03:43;4.30;;;4.00;;
33270;SDS011;53180;51.344;6.152;2023-02-28T09:06:13;4.32;;;4.03;;
33270;SDS011;53180;51.344;6.152;2023-02-28T09:08:43;4.30;;;3.90;;
33270;SDS011;53180;51.344;6.152;2023-02-28T09:11:12;4.07;;;3.78;;
33270;SDS011;53180;51.344;6.152;2023-02-28T09:13:41;4.13;;;3.83;;
33270;SDS011;53180;51.344;6.152;2023-02-28T09:16:11;4.25;;;3.95;;
33270;SDS011;53180;51.344;6.152;2023-02-28T09:18:42;4.10;;;3.78;;
33270;SDS011;53180;51.344;6.152;2023-02-28T09:21:11;3.97;;;3.67;;
33270;SDS011;53180;51.344;6.152;2023-02-28T09:23:43;3.72;;;3.47;;
33270;SDS011;53180;51.344;6.152;2023-02-28T09:26:13;3.97;;;3.67;;
33270;SDS011;53180;51.344;6.152;2023-02-28T09:28:44;3.92;;;3.63;;
33270;SDS011;53180;51.344;6.152;2023-02-28T09:31:13;3.17;;;2.97;;
33270;SDS011;53180;51.344;6.152;2023-02-28T09:33:47;3.90;;;3.60;;
33270;SDS011;53180;51.344;6.152;2023-02-28T09:36:16;5.25;;;3.63;;
33270;SDS011;53180;51.344;6.152;2023-02-28T09:38:46;4.32;;;3.70;;
33270;SDS011;53180;51.344;6.152;2023-02-28T09:41:16;3.75;;;3.45;;
33270;SDS011;53180;51.344;6.152;2023-02-28T09:43:50;3.60;;;3.40;;
33270;SDS011;53180;51.344;6.152;2023-02-28T09:46:25;4.32;;;3.30;;
33270;SDS011;53180;51.344;6.152;2023-02-28T09:48:59;3.92;;;3.63;;
33270;SDS011;53180;51.344;6.152;2023-02-28T09:51:44;3.95;;;3.72;;
33270;SDS011;53180;51.344;6.152;2023-02-28T09:54:18;5.75;;;3.50;;
33270;SDS011;53180;51.344;6.152;2023-02-28T09:56:50;3.50;;;3.30;;
33270;SDS011;53180;51.344;6.152;2023-02-28T09:59:29;3.92;;;3.63;;
33270;SDS011;53180;51.344;6.152;2023-02-28T10:02:12;3.70;;;3.40;;
33270;SDS011;53180;51.344;6.152;2023-02-28T10:05:03;3.75;;;3.35;;
33270;SDS011;53180;51.344;6.152;2023-02-28T10:07:43;3.90;;;3.60;;
33270;SDS011;53180;51.344;6.152;2023-02-28T10:10:29;3.47;;;3.28;;
33270;SDS011;53180;51.344;6.152;2023-02-28T10:13:03;3.72;;;3.45;;
33270;SDS011;53180;51.344;6.152;2023-02-28T10:15:36;3.47;;;3.28;;
33270;SDS011;53180;51.344;6.152;2023-02-28T10:18:04;3.50;;;3.30;;
33270;SDS011;53180;51.344;6.152;2023-02-28T10:20:42;3.60;;;3.30;;
33270;SDS011;53180;51.344;6.152;2023-02-28T10:23:12;3.15;;;2.95;;
33270;SDS011;53180;51.344;6.152;2023-02-28T10:25:48;3.58;;;3.28;;
33270;SDS011;53180;51.344;6.152;2023-02-28T10:28:22;3.40;;;3.20;;
33270;SDS011;53180;51.344;6.152;2023-02-28T10:30:54;3.67;;;3.38;;
33270;SDS011;53180;51.344;6.152;2023-02-28T10:33:24;3.60;;;3.40;;
33270;SDS011;53180;51.344;6.152;2023-02-28T10:35:56;3.30;;;3.00;;
33270;SDS011;53180;51.344;6.152;2023-02-28T10:38:26;3.50;;;3.30;;
33270;SDS011;53180;51.344;6.152;2023-02-28T10:41:05;3.65;;;3.35;;
33270;SDS011;53180;51.344;6.152;2023-02-28T10:43:36;2.97;;;2.78;;
33270;SDS011;53180;51.344;6.152;2023-02-28T10:46:11;3.50;;;3.17;;
33270;SDS011;53180;51.344;6.152;2023-02-28T10:49:00;3.30;;;3.10;;
33270;SDS011;53180;51.344;6.152;2023-02-28T10:51:35;3.78;;;3.42;;
33270;SDS011;53180;51.344;6.152;2023-02-28T10:54:05;3.45;;;3.20;;
33270;SDS011;53180;51.344;6.152;2023-02-28T10:56:44;3.25;;;3.05;;
33270;SDS011;53180;51.344;6.152;2023-02-28T11:02:00;3.17;;;2.97;;
33270;SDS011;53180;51.344;6.152;2023-02-28T11:04:32;3.83;;;3.42;;
33270;SDS011;53180;51.344;6.152;2023-02-28T11:07:06;3.53;;;3.22;;
33270;SDS011;53180;51.344;6.152;2023-02-28T11:09:48;3.17;;;2.97;;
33270;SDS011;53180;51.344;6.152;2023-02-28T11:12:20;4.22;;;3.83;;
33270;SDS011;53180;51.344;6.152;2023-02-28T11:14:53;7.47;;;4.15;;
33270;SDS011;53180;51.344;6.152;2023-02-28T11:17:26;10.00;;;5.68;;
33270;SDS011;53180;51.344;6.152;2023-02-28T11:19:58;3.60;;;3.10;;
33270;SDS011;53180;51.344;6.152;2023-02-28T11:22:29;3.30;;;3.00;;
33270;SDS011;53180;51.344;6.152;2023-02-28T11:25:03;3.33;;;2.88;;
33270;SDS011;53180;51.344;6.152;2023-02-28T11:27:41;3.28;;;3.08;;
33270;SDS011;53180;51.344;6.152;2023-02-28T11:30:26;3.75;;;3.20;;
33270;SDS011;53180;51.344;6.152;2023-02-28T11:32:59;3.22;;;3.03;;
33270;SDS011;53180;51.344;6.152;2023-02-28T11:38:02;2.90;;;2.70;;
33270;SDS011;53180;51.344;6.152;2023-02-28T11:40:35;3.28;;;3.08;;
33270;SDS011;53180;51.344;6.152;2023-02-28T11:43:18;3.72;;;3.15;;
33270;SDS011;53180;51.344;6.152;2023-02-28T11:46:05;3.35;;;3.05;;
33270;SDS011;53180;51.344;6.152;2023-02-28T11:48:51;3.22;;;3.03;;
33270;SDS011;53180;51.344;6.152;2023-02-28T11:51:32;3.10;;;2.90;;
33270;SDS011;53180;51.344;6.152;2023-02-28T11:54:06;3.20;;;2.90;;
33270;SDS011;53180;51.344;6.152;2023-02-28T11:56:51;3.45;;;3.15;;
33270;SDS011;53180;51.344;6.152;2023-02-28T11:59:29;3.60;;;3.15;;
33270;SDS011;53180;51.344;6.152;2023-02-28T12:02:20;3.13;;;2.90;;
33270;SDS011;53180;51.344;6.152;2023-02-28T12:05:01;3.30;;;3.10;;
33270;SDS011;53180;51.344;6.152;2023-02-28T12:07:47;3.33;;;3.10;;
33270;SDS011;53180;51.344;6.152;2023-02-28T12:10:29;3.40;;;3.10;;
33270;SDS011;53180;51.344;6.152;2023-02-28T12:13:06;3.40;;;3.20;;
33270;SDS011;53180;51.344;6.152;2023-02-28T12:18:54;3.15;;;2.95;;
33270;SDS011;53180;51.344;6.152;2023-02-28T12:21:39;3.30;;;3.00;;
33270;SDS011;53180;51.344;6.152;2023-02-28T12:24:39;4.07;;;3.00;;
33270;SDS011;53180;51.344;6.152;2023-02-28T12:27:31;3.72;;;3.45;;
33270;SDS011;53180;51.344;6.152;2023-02-28T12:30:05;3.15;;;2.95;;
33270;SDS011;53180;51.344;6.152;2023-02-28T12:32:45;3.85;;;3.20;;
33270;SDS011;53180;51.344;6.152;2023-02-28T12:35:18;3.40;;;3.20;;
33270;SDS011;53180;51.344;6.152;2023-02-28T12:37:54;3.35;;;3.05;;
33270;SDS011;53180;51.344;6.152;2023-02-28T12:40:28;3.35;;;3.10;;
33270;SDS011;53180;51.344;6.152;2023-02-28T12:43:07;3.05;;;2.85;;
33270;SDS011;53180;51.344;6.152;2023-02-28T12:45:39;10.03;;;3.90;;
33270;SDS011;53180;51.344;6.152;2023-02-28T12:48:13;3.03;;;2.83;;
33270;SDS011;53180;51.344;6.152;2023-02-28T12:50:47;3.30;;;3.10;;
33270;SDS011;53180;51.344;6.152;2023-02-28T12:53:21;3.20;;;3.00;;
33270;SDS011;53180;51.344;6.152;2023-02-28T12:55:57;3.50;;;3.20;;
33270;SDS011;53180;51.344;6.152;2023-02-28T12:58:37;3.63;;;3.30;;
33270;SDS011;53180;51.344;6.152;2023-02-28T13:04:25;3.50;;;3.08;;
33270;SDS011;53180;51.344;6.152;2023-02-28T13:07:24;3.10;;;2.90;;
33270;SDS011;53180;51.344;6.152;2023-02-28T13:10:39;4.00;;;3.65;;
33270;SDS011;53180;51.344;6.152;2023-02-28T13:13:13;3.22;;;3.03;;
33270;SDS011;53180;51.344;6.152;2023-02-28T13:16:01;3.70;;;3.47;;
33270;SDS011;53180;51.344;6.152;2023-02-28T13:18:36;3.58;;;3.28;;
33270;SDS011;53180;51.344;6.152;2023-02-28T13:21:06;3.17;;;2.97;;
33270;SDS011;53180;51.344;6.152;2023-02-28T13:23:37;3.30;;;3.10;;
33270;SDS011;53180;51.344;6.152;2023-02-28T13:29:51;3.08;;;2.88;;
33270;SDS011;53180;51.344;6.152;2023-02-28T13:32:30;3.33;;;3.10;;
33270;SDS011;53180;51.344;6.152;2023-02-28T13:38:15;3.40;;;3.13;;
33270;SDS011;53180;51.344;6.152;2023-02-28T13:44:23;3.75;;;3.45;;
33270;SDS011;53180;51.344;6.152;2023-02-28T13:50:14;3.72;;;3.42;;
33270;SDS011;53180;51.344;6.152;2023-02-28T13:52:53;3.58;;;3.28;;
33270;SDS011;53180;51.344;6.152;2023-02-28T13:55:50;3.78;;;3.30;;
33270;SDS011;53180;51.344;6.152;2023-02-28T13:58:31;5.05;;;3.50;;
33270;SDS011;53180;51.344;6.152;2023-02-28T14:01:16;5.72;;;3.28;;
33270;SDS011;53180;51.344;6.152;2023-02-28T14:04:11;3.40;;;3.20;;
33270;SDS011;53180;51.344;6.152;2023-02-28T14:07:09;3.30;;;3.05;;
33270;SDS011;53180;51.344;6.152;2023-02-28T14:09:45;3.70;;;3.45;;
33270;SDS011;53180;51.344;6.152;2023-02-28T14:18:30;4.50;;;3.15;;
33270;SDS011;53180;51.344;6.152;2023-02-28T14:21:03;3.40;;;3.20;;
33270;SDS011;53180;51.344;6.152;2023-02-28T14:23:43;3.45;;;3.25;;
33270;SDS011;53180;51.344;6.152;2023-02-28T14:26:45;3.72;;;3.20;;
33270;SDS011;53180;51.344;6.152;2023-02-28T14:32:12;3.40;;;3.20;;
33270;SDS011;53180;51.344;6.152;2023-02-28T14:34:52;4.38;;;3.40;;
33270;SDS011;53180;51.344;6.152;2023-02-28T14:37:27;3.53;;;3.30;;
33270;SDS011;53180;51.344;6.152;2023-02-28T14:39:58;3.70;;;3.40;;
33270;SDS011;53180;51.344;6.152;2023-02-28T14:42:30;3.80;;;3.53;;
33270;SDS011;53180;51.344;6.152;2023-02-28T14:45:01;3.40;;;3.20;;
33270;SDS011;53180;51.344;6.152;2023-02-28T14:47:31;3.55;;;3.35;;
33270;SDS011;53180;51.344;6.152;2023-02-28T14:50:03;3.90;;;3.65;;
33270;SDS011;53180;51.344;6.152;2023-02-28T14:52:32;3.50;;;3.30;;
33270;SDS011;53180;51.344;6.152;2023-02-28T14:55:03;3.67;;;3.38;;
33270;SDS011;53180;51.344;6.152;2023-02-28T14:57:39;3.80;;;3.50;;
33270;SDS011;53180;51.344;6.152;2023-02-28T15:00:12;3.50;;;3.30;;
33270;SDS011;53180;51.344;6.152;2023-02-28T15:02:44;5.20;;;3.45;;
33270;SDS011;53180;51.344;6.152;2023-02-28T15:05:21;3.70;;;3.50;;
33270;SDS011;53180;51.344;6.152;2023-02-28T15:10:33;3.00;;;2.80;;
33270;SDS011;53180;51.344;6.152;2023-02-28T15:13:04;3.80;;;3.50;;
33270;SDS011;53180;51.344;6.152;2023-02-28T15:15:39;4.07;;;3.50;;
33270;SDS011;53180;51.344;6.152;2023-02-28T15:18:29;3.75;;;3.45;;
33270;SDS011;53180;51.344;6.152;2023-02-28T15:21:06;4.40;;;3.80;;
33270;SDS011;53180;51.344;6.152;2023-02-28T15:23:41;3.90;;;3.60;;
33270;SDS011;53180;51.344;6.152;2023-02-28T15:26:14;5.53;;;3.55;;
33270;SDS011;53180;51.344;6.152;2023-02-28T15:28:44;3.90;;;3.70;;
33270;SDS011;53180;51.344;6.152;2023-02-28T15:31:20;3.80;;;3.50;;
33270;SDS011;53180;51.344;6.152;2023-02-28T15:33:56;4.00;;;3.70;;
33270;SDS011;53180;51.344;6.152;2023-02-28T15:36:33;3.58;;;3.28;;
33270;SDS011;53180;51.344;6.152;2023-02-28T15:39:16;3.45;;;3.25;;
33270;SDS011;53180;51.344;6.152;2023-02-28T15:41:48;3.90;;;3.60;;
33270;SDS011;53180;51.344;6.152;2023-02-28T15:44:22;3.80;;;3.50;;
33270;SDS011;53180;51.344;6.152;2023-02-28T15:46:59;4.47;;;4.10;;
33270;SDS011;53180;51.344;6.152;2023-02-28T15:49:33;3.72;;;3.42;;
33270;SDS011;53180;51.344;6.152;2023-02-28T15:52:14;3.90;;;3.55;;
33270;SDS011;53180;51.344;6.152;2023-02-28T15:54:46;4.10;;;3.80;;
33270;SDS011;53180;51.344;6.152;2023-02-28T15:57:17;3.78;;;3.47;;
33270;SDS011;53180;51.344;6.152;2023-02-28T15:59:49;3.83;;;3.53;;
33270;SDS011;53180;51.344;6.152;2023-02-28T16:02:22;4.15;;;3.85;;
33270;SDS011;53180;51.344;6.152;2023-02-28T16:07:56;4.22;;;3.90;;
33270;SDS011;53180;51.344;6.152;2023-02-28T16:10:26;4.10;;;3.80;;
33270;SDS011;53180;51.344;6.152;2023-02-28T16:15:26;4.03;;;3.78;;
33270;SDS011;53180;51.344;6.152;2023-02-28T16:17:56;3.88;;;3.60;;
33270;SDS011;53180;51.344;6.152;2023-02-28T16:20:26;3.92;;;3.63;;
33270;SDS011;53180;51.344;6.152;2023-02-28T16:22:58;4.22;;;3.92;;
33270;SDS011;53180;51.344;6.152;2023-02-28T16:25:29;3.78;;;3.53;;